sensor_id;sensor_type;location;lat;lon;timestamp;pressure;altitude;pressure_sealevel;temperature;humidity
62592;BME280;48659;41.622;2.276;2022-10-16T00:01:14;99875.27;;;19.07;62.75
62592;BME280;48659;41.622;2.276;2022-10-16T00:03:43;99877.54;;;20.60;59.21
62592;BME280;48659;41.622;2.276;2022-10-16T00:06:11;99875.33;;;19.33;62.02
62592;BME280;48659;41.622;2.276;2022-10-16T00:08:48;99873.61;;;20.83;58.83
62592;BME280;48659;41.622;2.276;2022-10-16T00:11:19;99868.34;;;20.16;59.34
62592;BME280;48659;41.622;2.276;2022-10-16T00:13:48;99865.07;;;19.97;60.78
62592;BME280;48659;41.622;2.276;2022-10-16T00:16:17;99866.31;;;20.86;57.86
62592;BME280;48659;41.622;2.276;2022-10-16T00:18:45;99866.09;;;20.92;57.34
62592;BME280;48659;41.622;2.276;2022-10-16T00:21:15;99871.60;;;20.69;57.74
62592;BME280;48659;41.622;2.276;2022-10-16T00:23:43;99866.22;;;20.84;57.00
62592;BME280;48659;41.622;2.276;2022-10-16T00:26:14;99866.00;;;21.30;57.44
62592;BME280;48659;41.622;2.276;2022-10-16T00:28:42;99866.49;;;20.79;57.48
62592;BME280;48659;41.622;2.276;2022-10-16T00:31:12;99870.34;;;20.27;59.38
62592;BME280;48659;41.622;2.276;2022-10-16T00:33:40;99871.50;;;21.07;56.66
62592;BME280;48659;41.622;2.276;2022-10-16T00:36:11;99871.52;;;21.74;54.92
62592;BME280;48659;41.622;2.276;2022-10-16T00:38:41;99870.02;;;21.70;54.54
62592;BME280;48659;41.622;2.276;2022-10-16T00:41:11;99868.07;;;21.67;55.60
62592;BME280;48659;41.622;2.276;2022-10-16T00:43:42;99868.19;;;20.82;57.08
62592;BME280;48659;41.622;2.276;2022-10-16T00:46:15;99861.52;;;20.35;58.32
62592;BME280;48659;41.622;2.276;2022-10-16T00:48:46;99856.62;;;18.83;61.34
62592;BME280;48659;41.622;2.276;2022-10-16T00:51:18;99855.41;;;20.33;59.06
62592;BME280;48659;41.622;2.276;2022-10-16T00:53:46;99851.07;;;20.92;57.01
62592;BME280;48659;41.622;2.276;2022-10-16T00:56:15;99850.40;;;19.77;60.90
62592;BME280;48659;41.622;2.276;2022-10-16T00:58:43;99844.46;;;19.83;58.30
62592;BME280;48659;41.622;2.276;2022-10-16T01:01:11;99842.81;;;20.34;57.83
62592;BME280;48659;41.622;2.276;2022-10-16T01:03:39;99841.03;;;20.57;57.10
62592;BME280;48659;41.622;2.276;2022-10-16T01:06:19;99839.54;;;20.52;57.27
62592;BME280;48659;41.622;2.276;2022-10-16T01:08:58;99834.57;;;20.58;56.04
62592;BME280;48659;41.622;2.276;2022-10-16T01:11:32;99831.84;;;20.64;55.26
62592;BME280;48659;41.622;2.276;2022-10-16T01:16:53;99825.99;;;19.92;54.25
62592;BME280;48659;41.622;2.276;2022-10-16T01:19:34;99832.57;;;20.56;56.02
62592;BME280;48659;41.622;2.276;2022-10-16T01:22:07;99819.85;;;20.89;55.77
62592;BME280;48659;41.622;2.276;2022-10-16T01:24:39;99812.53;;;21.39;52.92
62592;BME280;48659;41.622;2.276;2022-10-16T01:27:10;99820.25;;;18.94;59.33
62592;BME280;48659;41.622;2.276;2022-10-16T01:29:44;99823.03;;;18.12;61.11
62592;BME280;48659;41.622;2.276;2022-10-16T01:32:21;99816.37;;;19.28;59.46
62592;BME280;48659;41.622;2.276;2022-10-16T01:34:53;99814.43;;;19.58;59.28
62592;BME280;48659;41.622;2.276;2022-10-16T01:37:35;99814.28;;;20.10;57.89
62592;BME280;48659;41.622;2.276;2022-10-16T01:40:08;99820.08;;;20.19;58.05
62592;BME280;48659;41.622;2.276;2022-10-16T01:42:40;99821.51;;;20.33;57.29
62592;BME280;48659;41.622;2.276;2022-10-16T01:45:12;99820.78;;;20.57;56.01
62592;BME280;48659;41.622;2.276;2022-10-16T01:47:41;99816.61;;;20.64;56.26
62592;BME280;48659;41.622;2.276;2022-10-16T01:50:18;99817.53;;;20.62;54.96
62592;BME280;48659;41.622;2.276;2022-10-16T01:52:50;99817.53;;;20.43;54.60
62592;BME280;48659;41.622;2.276;2022-10-16T01:55:24;99813.05;;;20.66;54.48
62592;BME280;48659;41.622;2.276;2022-10-16T01:57:53;99814.37;;;20.32;55.49
62592;BME280;48659;41.622;2.276;2022-10-16T02:00:22;99815.27;;;20.31;55.45
62592;BME280;48659;41.622;2.276;2022-10-16T02:02:53;99812.31;;;20.40;55.37
62592;BME280;48659;41.622;2.276;2022-10-16T02:05:23;99808.02;;;20.29;56.08
62592;BME280;48659;41.622;2.276;2022-10-16T02:07:53;99813.61;;;20.02;55.96
62592;BME280;48659;41.622;2.276;2022-10-16T02:10:21;99810.34;;;20.02;56.53
62592;BME280;48659;41.622;2.276;2022-10-16T02:12:53;99811.18;;;20.29;55.15
62592;BME280;48659;41.622;2.276;2022-10-16T02:15:22;99817.13;;;19.63;55.56
62592;BME280;48659;41.622;2.276;2022-10-16T02:17:49;99820.81;;;19.32;57.36
62592;BME280;48659;41.622;2.276;2022-10-16T02:20:16;99826.54;;;19.00;58.63
62592;BME280;48659;41.622;2.276;2022-10-16T02:22:47;99821.00;;;18.98;58.56
62592;BME280;48659;41.622;2.276;2022-10-16T02:25:19;99822.63;;;19.56;57.64
62592;BME280;48659;41.622;2.276;2022-10-16T02:27:54;99816.32;;;19.26;57.68
62592;BME280;48659;41.622;2.276;2022-10-16T02:30:27;99813.87;;;19.43;57.73
62592;BME280;48659;41.622;2.276;2022-10-16T02:32:59;99809.76;;;19.89;55.73
62592;BME280;48659;41.622;2.276;2022-10-16T02:35:28;99811.18;;;19.58;56.45
62592;BME280;48659;41.622;2.276;2022-10-16T02:37:56;99813.01;;;20.09;55.35
62592;BME280;48659;41.622;2.276;2022-10-16T02:40:25;99816.31;;;20.08;55.92
62592;BME280;48659;41.622;2.276;2022-10-16T02:42:54;99814.62;;;20.23;54.52
62592;BME280;48659;41.622;2.276;2022-10-16T02:45:24;99820.62;;;18.88;56.33
62592;BME280;48659;41.622;2.276;2022-10-16T02:47:52;99822.33;;;20.35;54.72
62592;BME280;48659;41.622;2.276;2022-10-16T02:50:19;99820.84;;;19.99;54.52
62592;BME280;48659;41.622;2.276;2022-10-16T02:52:47;99827.23;;;18.86;56.49
62592;BME280;48659;41.622;2.276;2022-10-16T02:55:14;99837.41;;;17.53;61.05
62592;BME280;48659;41.622;2.276;2022-10-16T02:57:41;99840.11;;;18.73;58.25
62592;BME280;48659;41.622;2.276;2022-10-16T03:00:12;99829.18;;;19.76;55.04
62592;BME280;48659;41.622;2.276;2022-10-16T03:02:40;99834.26;;;19.58;55.39
62592;BME280;48659;41.622;2.276;2022-10-16T03:05:08;99842.97;;;16.79;58.88
62592;BME280;48659;41.622;2.276;2022-10-16T03:07:35;99843.28;;;15.13;64.21
62592;BME280;48659;41.622;2.276;2022-10-16T03:10:04;99841.36;;;17.04;60.06
62592;BME280;48659;41.622;2.276;2022-10-16T03:12:31;99850.19;;;16.23;61.80
62592;BME280;48659;41.622;2.276;2022-10-16T03:14:58;99846.88;;;17.41;58.56
62592;BME280;48659;41.622;2.276;2022-10-16T03:17:25;99853.58;;;16.28;62.34
62592;BME280;48659;41.622;2.276;2022-10-16T03:19:53;99850.30;;;14.86;66.39
62592;BME280;48659;41.622;2.276;2022-10-16T03:22:20;99847.70;;;15.60;64.32
62592;BME280;48659;41.622;2.276;2022-10-16T03:24:47;99845.25;;;16.26;61.25
62592;BME280;48659;41.622;2.276;2022-10-16T03:27:15;99831.26;;;17.41;57.87
62592;BME280;48659;41.622;2.276;2022-10-16T03:29:43;99839.45;;;15.68;60.85
62592;BME280;48659;41.622;2.276;2022-10-16T03:32:11;99842.58;;;15.36;61.89
62592;BME280;48659;41.622;2.276;2022-10-16T03:34:38;99844.75;;;16.71;59.09
62592;BME280;48659;41.622;2.276;2022-10-16T03:37:05;99854.24;;;15.71;61.39
62592;BME280;48659;41.622;2.276;2022-10-16T03:39:32;99856.18;;;16.16;60.25
62592;BME280;48659;41.622;2.276;2022-10-16T03:41:59;99847.82;;;16.74;59.34
62592;BME280;48659;41.622;2.276;2022-10-16T03:44:27;99847.92;;;17.45;57.05
62592;BME280;48659;41.622;2.276;2022-10-16T03:46:54;99850.12;;;17.43;55.82
62592;BME280;48659;41.622;2.276;2022-10-16T03:49:22;99851.40;;;16.96;57.48
62592;BME280;48659;41.622;2.276;2022-10-16T03:51:49;99858.81;;;15.36;62.58
62592;BME280;48659;41.622;2.276;2022-10-16T03:54:16;99860.87;;;14.86;65.73
62592;BME280;48659;41.622;2.276;2022-10-16T03:56:44;99856.00;;;15.56;62.87
62592;BME280;48659;41.622;2.276;2022-10-16T03:59:11;99854.36;;;15.33;62.99
62592;BME280;48659;41.622;2.276;2022-10-16T04:01:38;99859.53;;;14.55;64.64
62592;BME280;48659;41.622;2.276;2022-10-16T04:04:05;99858.80;;;15.18;63.76
62592;BME280;48659;41.622;2.276;2022-10-16T04:06:33;99856.51;;;15.34;62.56
62592;BME280;48659;41.622;2.276;2022-10-16T04:09:00;99850.96;;;15.98;62.22
62592;BME280;48659;41.622;2.276;2022-10-16T04:11:27;99852.85;;;15.36;61.93
62592;BME280;48659;41.622;2.276;2022-10-16T04:13:54;99846.24;;;15.42;60.72
62592;BME280;48659;41.622;2.276;2022-10-16T04:16:21;99836.84;;;15.06;62.74
62592;BME280;48659;41.622;2.276;2022-10-16T04:18:50;99833.75;;;14.21;64.77
62592;BME280;48659;41.622;2.276;2022-10-16T04:21:17;99827.90;;;15.40;62.47
62592;BME280;48659;41.622;2.276;2022-10-16T04:23:44;99835.33;;;14.59;64.60
62592;BME280;48659;41.622;2.276;2022-10-16T04:26:12;99845.06;;;14.04;66.83
62592;BME280;48659;41.622;2.276;2022-10-16T04:28:39;99841.49;;;14.52;65.56
62592;BME280;48659;41.622;2.276;2022-10-16T04:31:06;99844.46;;;15.65;62.53
62592;BME280;48659;41.622;2.276;2022-10-16T04:33:34;99850.37;;;16.28;59.85
62592;BME280;48659;41.622;2.276;2022-10-16T04:36:03;99850.13;;;16.61;59.32
62592;BME280;48659;41.622;2.276;2022-10-16T04:38:31;99846.41;;;16.89;57.81
62592;BME280;48659;41.622;2.276;2022-10-16T04:40:58;99846.76;;;15.04;62.47
62592;BME280;48659;41.622;2.276;2022-10-16T04:43:25;99848.03;;;15.90;60.43
62592;BME280;48659;41.622;2.276;2022-10-16T04:45:53;99852.72;;;17.15;57.37
62592;BME280;48659;41.622;2.276;2022-10-16T04:48:20;99863.45;;;18.24;54.39
62592;BME280;48659;41.622;2.276;2022-10-16T04:50:51;99864.33;;;18.21;52.71
62592;BME280;48659;41.622;2.276;2022-10-16T04:53:19;99856.54;;;18.54;52.33
62592;BME280;48659;41.622;2.276;2022-10-16T04:55:46;99857.78;;;18.25;51.79
62592;BME280;48659;41.622;2.276;2022-10-16T04:58:13;99863.11;;;18.43;51.00
62592;BME280;48659;41.622;2.276;2022-10-16T05:00:41;99865.49;;;19.31;50.53
62592;BME280;48659;41.622;2.276;2022-10-16T05:03:09;99866.06;;;18.94;50.75
62592;BME280;48659;41.622;2.276;2022-10-16T05:05:36;99864.80;;;18.95;50.66
62592;BME280;48659;41.622;2.276;2022-10-16T05:08:03;99868.51;;;18.85;51.02
62592;BME280;48659;41.622;2.276;2022-10-16T05:10:31;99873.44;;;18.42;51.70
62592;BME280;48659;41.622;2.276;2022-10-16T05:12:58;99876.15;;;17.50;54.30
62592;BME280;48659;41.622;2.276;2022-10-16T05:15:26;99884.04;;;15.46;60.09
62592;BME280;48659;41.622;2.276;2022-10-16T05:17:54;99881.07;;;16.52;57.38
62592;BME280;48659;41.622;2.276;2022-10-16T05:20:23;99890.02;;;13.93;66.61
62592;BME280;48659;41.622;2.276;2022-10-16T05:22:50;99893.30;;;15.14;63.43
62592;BME280;48659;41.622;2.276;2022-10-16T05:25:18;99896.32;;;16.34;59.31
62592;BME280;48659;41.622;2.276;2022-10-16T05:27:47;99892.22;;;15.59;59.60
62592;BME280;48659;41.622;2.276;2022-10-16T05:30:15;99894.66;;;16.83;57.22
62592;BME280;48659;41.622;2.276;2022-10-16T05:32:51;99896.58;;;15.15;59.41
62592;BME280;48659;41.622;2.276;2022-10-16T05:35:19;99896.55;;;15.32;59.57
62592;BME280;48659;41.622;2.276;2022-10-16T05:37:47;99894.16;;;14.95;61.17
62592;BME280;48659;41.622;2.276;2022-10-16T05:40:15;99896.74;;;16.05;58.76
62592;BME280;48659;41.622;2.276;2022-10-16T05:42:43;99909.08;;;14.69;62.26
62592;BME280;48659;41.622;2.276;2022-10-16T05:45:11;99918.51;;;14.12;65.07
62592;BME280;48659;41.622;2.276;2022-10-16T05:47:39;99916.60;;;14.78;64.35
62592;BME280;48659;41.622;2.276;2022-10-16T05:50:07;99918.84;;;14.18;64.81
62592;BME280;48659;41.622;2.276;2022-10-16T05:52:35;99916.05;;;15.48;62.19
62592;BME280;48659;41.622;2.276;2022-10-16T05:55:03;99921.42;;;15.04;61.84
62592;BME280;48659;41.622;2.276;2022-10-16T05:57:30;99927.40;;;14.90;62.25
62592;BME280;48659;41.622;2.276;2022-10-16T05:59:57;99922.54;;;15.28;60.40
62592;BME280;48659;41.622;2.276;2022-10-16T06:02:24;99923.01;;;16.21;58.09
62592;BME280;48659;41.622;2.276;2022-10-16T06:04:52;99932.02;;;16.86;55.34
62592;BME280;48659;41.622;2.276;2022-10-16T06:07:19;99943.83;;;17.62;54.10
62592;BME280;48659;41.622;2.276;2022-10-16T06:09:48;99943.24;;;17.72;53.21
62592;BME280;48659;41.622;2.276;2022-10-16T06:12:16;99947.61;;;18.46;52.55
62592;BME280;48659;41.622;2.276;2022-10-16T06:14:43;99948.78;;;17.79;52.78
62592;BME280;48659;41.622;2.276;2022-10-16T06:17:11;99947.39;;;17.32;53.71
62592;BME280;48659;41.622;2.276;2022-10-16T06:19:39;99946.07;;;17.49;53.36
62592;BME280;48659;41.622;2.276;2022-10-16T06:22:07;99961.17;;;14.91;58.90
62592;BME280;48659;41.622;2.276;2022-10-16T06:24:34;99952.99;;;17.01;54.74
62592;BME280;48659;41.622;2.276;2022-10-16T06:27:03;99953.20;;;17.86;52.07
62592;BME280;48659;41.622;2.276;2022-10-16T06:29:30;99958.90;;;18.56;50.79
62592;BME280;48659;41.622;2.276;2022-10-16T06:31:57;99966.60;;;18.31;51.38
62592;BME280;48659;41.622;2.276;2022-10-16T06:34:24;99970.01;;;18.72;49.95
62592;BME280;48659;41.622;2.276;2022-10-16T06:36:51;99972.59;;;18.04;51.33
62592;BME280;48659;41.622;2.276;2022-10-16T06:39:18;99974.11;;;17.96;53.18
62592;BME280;48659;41.622;2.276;2022-10-16T06:41:45;99976.54;;;16.84;54.67
62592;BME280;48659;41.622;2.276;2022-10-16T06:44:13;99981.07;;;16.04;57.49
62592;BME280;48659;41.622;2.276;2022-10-16T06:46:40;99981.74;;;16.25;57.30
62592;BME280;48659;41.622;2.276;2022-10-16T06:49:07;99980.83;;;15.88;58.30
62592;BME280;48659;41.622;2.276;2022-10-16T06:51:34;99981.76;;;17.46;55.33
62592;BME280;48659;41.622;2.276;2022-10-16T06:54:01;99979.14;;;16.94;56.60
62592;BME280;48659;41.622;2.276;2022-10-16T06:56:28;99979.38;;;17.55;55.78
62592;BME280;48659;41.622;2.276;2022-10-16T06:58:57;99984.85;;;14.95;60.76
62592;BME280;48659;41.622;2.276;2022-10-16T07:01:25;99977.71;;;16.80;58.09
62592;BME280;48659;41.622;2.276;2022-10-16T07:03:52;99977.07;;;15.93;58.61
62592;BME280;48659;41.622;2.276;2022-10-16T07:06:23;99977.21;;;17.25;55.92
62592;BME280;48659;41.622;2.276;2022-10-16T07:08:50;99978.58;;;17.01;55.89
62592;BME280;48659;41.622;2.276;2022-10-16T07:11:20;99987.99;;;15.31;61.06
62592;BME280;48659;41.622;2.276;2022-10-16T07:13:48;99989.05;;;16.55;57.11
62592;BME280;48659;41.622;2.276;2022-10-16T07:16:18;99991.61;;;16.18;58.33
62592;BME280;48659;41.622;2.276;2022-10-16T07:18:45;99992.62;;;16.27;57.90
62592;BME280;48659;41.622;2.276;2022-10-16T07:21:14;99997.83;;;16.39;59.09
62592;BME280;48659;41.622;2.276;2022-10-16T07:23:55;99992.25;;;18.51;53.30
62592;BME280;48659;41.622;2.276;2022-10-16T07:26:23;99995.17;;;19.27;50.80
62592;BME280;48659;41.622;2.276;2022-10-16T07:28:51;99996.74;;;19.18;50.35
62592;BME280;48659;41.622;2.276;2022-10-16T07:31:20;99995.63;;;18.29;52.08
62592;BME280;48659;41.622;2.276;2022-10-16T07:33:47;100002.57;;;16.34;56.40
62592;BME280;48659;41.622;2.276;2022-10-16T07:36:16;100003.67;;;17.27;53.55
62592;BME280;48659;41.622;2.276;2022-10-16T07:38:44;100008.05;;;19.07;49.61
62592;BME280;48659;41.622;2.276;2022-10-16T07:41:14;100014.21;;;19.68;47.88
62592;BME280;48659;41.622;2.276;2022-10-16T07:43:46;100017.27;;;17.46;51.14
62592;BME280;48659;41.622;2.276;2022-10-16T07:46:14;100021.13;;;17.17;52.59
62592;BME280;48659;41.622;2.276;2022-10-16T07:48:41;100015.34;;;18.82;49.60
62592;BME280;48659;41.622;2.276;2022-10-16T07:51:09;100018.23;;;19.60;48.51
62592;BME280;48659;41.622;2.276;2022-10-16T07:53:36;100021.01;;;17.70;52.12
62592;BME280;48659;41.622;2.276;2022-10-16T07:56:05;100025.13;;;17.11;54.52
62592;BME280;48659;41.622;2.276;2022-10-16T07:58:35;100029.99;;;16.98;54.16
62592;BME280;48659;41.622;2.276;2022-10-16T08:01:03;100037.69;;;17.06;54.85
62592;BME280;48659;41.622;2.276;2022-10-16T08:03:32;100037.48;;;18.22;51.17
62592;BME280;48659;41.622;2.276;2022-10-16T08:06:00;100042.91;;;18.32;51.32
62592;BME280;48659;41.622;2.276;2022-10-16T08:08:28;100046.92;;;19.21;49.84
62592;BME280;48659;41.622;2.276;2022-10-16T08:10:56;100051.18;;;19.27;48.29
62592;BME280;48659;41.622;2.276;2022-10-16T08:13:23;100049.79;;;19.87;47.49
62592;BME280;48659;41.622;2.276;2022-10-16T08:15:51;100049.89;;;19.48;47.84
62592;BME280;48659;41.622;2.276;2022-10-16T08:18:18;100048.62;;;19.84;47.19
62592;BME280;48659;41.622;2.276;2022-10-16T08:20:56;100046.95;;;20.12;45.01
62592;BME280;48659;41.622;2.276;2022-10-16T08:23:25;100045.16;;;20.92;44.16
62592;BME280;48659;41.622;2.276;2022-10-16T08:25:52;100042.79;;;21.25;43.54
62592;BME280;48659;41.622;2.276;2022-10-16T08:28:21;100047.80;;;21.73;43.38
62592;BME280;48659;41.622;2.276;2022-10-16T08:30:50;100048.68;;;21.98;43.43
62592;BME280;48659;41.622;2.276;2022-10-16T08:33:18;100056.14;;;22.22;41.82
62592;BME280;48659;41.622;2.276;2022-10-16T08:35:51;100059.32;;;22.35;41.58
62592;BME280;48659;41.622;2.276;2022-10-16T08:38:18;100062.44;;;21.78;42.36
62592;BME280;48659;41.622;2.276;2022-10-16T08:40:45;100061.04;;;22.30;41.98
62592;BME280;48659;41.622;2.276;2022-10-16T08:43:26;100062.83;;;22.67;41.12
62592;BME280;48659;41.622;2.276;2022-10-16T08:46:11;100062.26;;;22.61;41.24
62592;BME280;48659;41.622;2.276;2022-10-16T08:48:55;100059.29;;;22.91;41.33
62592;BME280;48659;41.622;2.276;2022-10-16T08:51:25;100059.07;;;22.97;42.06
62592;BME280;48659;41.622;2.276;2022-10-16T08:53:56;100063.05;;;23.24;41.37
62592;BME280;48659;41.622;2.276;2022-10-16T08:56:24;100066.47;;;23.33;41.05
62592;BME280;48659;41.622;2.276;2022-10-16T08:58:53;100068.66;;;23.51;40.51
62592;BME280;48659;41.622;2.276;2022-10-16T09:01:23;100066.01;;;23.89;40.81
62592;BME280;48659;41.622;2.276;2022-10-16T09:04:07;100066.40;;;23.70;40.48
62592;BME280;48659;41.622;2.276;2022-10-16T09:06:46;100068.22;;;24.13;40.13
62592;BME280;48659;41.622;2.276;2022-10-16T09:09:28;100062.36;;;23.19;41.33
62592;BME280;48659;41.622;2.276;2022-10-16T09:12:05;100063.24;;;24.07;39.99
62592;BME280;48659;41.622;2.276;2022-10-16T09:14:47;100060.78;;;22.99;41.81
62592;BME280;48659;41.622;2.276;2022-10-16T09:17:28;100061.21;;;24.30;41.10
62592;BME280;48659;41.622;2.276;2022-10-16T09:20:17;100056.82;;;22.95;42.20
62592;BME280;48659;41.622;2.276;2022-10-16T09:22:46;100057.03;;;22.03;43.85
62592;BME280;48659;41.622;2.276;2022-10-16T09:25:15;100070.45;;;24.15;43.05
62592;BME280;48659;41.622;2.276;2022-10-16T09:27:56;100078.17;;;24.59;42.78
62592;BME280;48659;41.622;2.276;2022-10-16T09:30:26;100080.38;;;23.85;42.10
62592;BME280;48659;41.622;2.276;2022-10-16T09:32:57;100079.52;;;24.61;40.51
62592;BME280;48659;41.622;2.276;2022-10-16T09:35:32;100082.01;;;24.98;40.45
62592;BME280;48659;41.622;2.276;2022-10-16T09:38:02;100078.55;;;24.70;40.46
62592;BME280;48659;41.622;2.276;2022-10-16T09:40:32;100075.57;;;25.12;40.35
62592;BME280;48659;41.622;2.276;2022-10-16T09:43:16;100083.15;;;24.09;44.22
62592;BME280;48659;41.622;2.276;2022-10-16T09:45:54;100089.53;;;24.81;43.82
62592;BME280;48659;41.622;2.276;2022-10-16T09:48:22;100092.25;;;24.90;43.94
62592;BME280;48659;41.622;2.276;2022-10-16T09:51:01;100089.44;;;25.05;43.58
62592;BME280;48659;41.622;2.276;2022-10-16T09:53:39;100090.97;;;24.36;45.69
62592;BME280;48659;41.622;2.276;2022-10-16T09:56:09;100087.49;;;24.69;45.31
62592;BME280;48659;41.622;2.276;2022-10-16T09:58:36;100083.10;;;24.87;44.34
62592;BME280;48659;41.622;2.276;2022-10-16T10:01:04;100086.87;;;22.19;50.44
62592;BME280;48659;41.622;2.276;2022-10-16T10:03:36;100089.00;;;23.97;47.52
62592;BME280;48659;41.622;2.276;2022-10-16T10:06:15;100087.40;;;22.32;52.12
62592;BME280;48659;41.622;2.276;2022-10-16T10:08:54;100085.55;;;24.47;48.18
62592;BME280;48659;41.622;2.276;2022-10-16T10:11:44;100085.16;;;25.04;47.07
62592;BME280;48659;41.622;2.276;2022-10-16T10:14:18;100089.26;;;22.36;52.71
62592;BME280;48659;41.622;2.276;2022-10-16T10:16:46;100089.79;;;24.44;48.48
62592;BME280;48659;41.622;2.276;2022-10-16T10:19:16;100088.46;;;25.09;46.80
62592;BME280;48659;41.622;2.276;2022-10-16T10:21:43;100088.25;;;25.25;46.25
62592;BME280;48659;41.622;2.276;2022-10-16T10:24:13;100089.44;;;25.64;44.89
62592;BME280;48659;41.622;2.276;2022-10-16T10:26:48;100091.46;;;25.69;44.91
62592;BME280;48659;41.622;2.276;2022-10-16T10:29:25;100093.54;;;25.43;45.92
62592;BME280;48659;41.622;2.276;2022-10-16T10:32:04;100094.39;;;24.37;48.64
62592;BME280;48659;41.622;2.276;2022-10-16T10:34:45;100088.29;;;24.51;48.76
62592;BME280;48659;41.622;2.276;2022-10-16T10:37:37;100088.81;;;24.52;49.12
62592;BME280;48659;41.622;2.276;2022-10-16T10:40:18;100079.23;;;25.40;46.60
62592;BME280;48659;41.622;2.276;2022-10-16T10:42:53;100084.67;;;25.71;46.01
62592;BME280;48659;41.622;2.276;2022-10-16T10:45:27;100083.15;;;25.56;45.46
62592;BME280;48659;41.622;2.276;2022-10-16T10:48:10;100083.90;;;25.51;45.36
62592;BME280;48659;41.622;2.276;2022-10-16T10:50:45;100086.61;;;25.10;47.00
62592;BME280;48659;41.622;2.276;2022-10-16T10:53:29;100085.17;;;25.69;45.42
62592;BME280;48659;41.622;2.276;2022-10-16T10:56:14;100087.61;;;24.70;46.90
62592;BME280;48659;41.622;2.276;2022-10-16T10:59:08;100077.93;;;24.94;46.13
62592;BME280;48659;41.622;2.276;2022-10-16T11:01:50;100074.98;;;25.89;44.33
62592;BME280;48659;41.622;2.276;2022-10-16T11:04:32;100077.09;;;25.84;43.74
62592;BME280;48659;41.622;2.276;2022-10-16T11:07:05;100073.20;;;25.69;44.56
62592;BME280;48659;41.622;2.276;2022-10-16T11:09:39;100079.53;;;25.27;44.57
62592;BME280;48659;41.622;2.276;2022-10-16T11:12:12;100076.41;;;25.85;43.34
62592;BME280;48659;41.622;2.276;2022-10-16T11:14:48;100075.17;;;25.34;44.75
62592;BME280;48659;41.622;2.276;2022-10-16T11:17:19;100076.42;;;25.54;43.59
62592;BME280;48659;41.622;2.276;2022-10-16T11:19:51;100078.21;;;25.66;43.88
62592;BME280;48659;41.622;2.276;2022-10-16T11:22:25;100078.49;;;24.68;45.29
62592;BME280;48659;41.622;2.276;2022-10-16T11:25:02;100075.18;;;24.78;45.43
62592;BME280;48659;41.622;2.276;2022-10-16T11:27:37;100064.91;;;25.07;45.33
62592;BME280;48659;41.622;2.276;2022-10-16T11:30:14;100063.16;;;24.42;46.03
62592;BME280;48659;41.622;2.276;2022-10-16T11:32:56;100053.94;;;25.13;45.29
62592;BME280;48659;41.622;2.276;2022-10-16T11:35:36;100052.98;;;25.04;45.24
62592;BME280;48659;41.622;2.276;2022-10-16T11:38:13;100050.78;;;26.10;43.59
62592;BME280;48659;41.622;2.276;2022-10-16T11:40:56;100049.25;;;25.65;43.82
62592;BME280;48659;41.622;2.276;2022-10-16T11:43:27;100053.81;;;23.81;46.59
62592;BME280;48659;41.622;2.276;2022-10-16T11:46:01;100044.16;;;25.08;44.30
62592;BME280;48659;41.622;2.276;2022-10-16T11:48:33;100041.69;;;25.20;43.80
62592;BME280;48659;41.622;2.276;2022-10-16T11:51:06;100041.35;;;25.65;43.69
62592;BME280;48659;41.622;2.276;2022-10-16T11:53:55;100037.40;;;26.01;43.02
62592;BME280;48659;41.622;2.276;2022-10-16T11:56:25;100040.65;;;25.38;43.87
62592;BME280;48659;41.622;2.276;2022-10-16T11:58:56;100038.81;;;25.38;43.42
62592;BME280;48659;41.622;2.276;2022-10-16T12:01:30;100034.50;;;24.64;44.97
62592;BME280;48659;41.622;2.276;2022-10-16T12:04:07;100032.58;;;25.92;42.40
62592;BME280;48659;41.622;2.276;2022-10-16T12:06:42;100027.73;;;26.15;41.98
62592;BME280;48659;41.622;2.276;2022-10-16T12:09:25;100022.07;;;27.06;40.83
62592;BME280;48659;41.622;2.276;2022-10-16T12:11:54;100023.06;;;26.25;42.56
62592;BME280;48659;41.622;2.276;2022-10-16T12:14:36;100021.91;;;25.50;44.43
62592;BME280;48659;41.622;2.276;2022-10-16T12:17:22;100020.52;;;25.24;43.99
62592;BME280;48659;41.622;2.276;2022-10-16T12:20:00;100020.29;;;25.54;44.16
62592;BME280;48659;41.622;2.276;2022-10-16T12:22:29;100016.70;;;25.33;44.50
62592;BME280;48659;41.622;2.276;2022-10-16T12:24:58;100015.51;;;25.20;43.37
62592;BME280;48659;41.622;2.276;2022-10-16T12:27:29;100011.14;;;25.73;43.57
62592;BME280;48659;41.622;2.276;2022-10-16T12:29:59;100009.05;;;25.36;43.55
62592;BME280;48659;41.622;2.276;2022-10-16T12:32:31;100017.96;;;23.16;47.88
62592;BME280;48659;41.622;2.276;2022-10-16T12:34:59;100008.23;;;24.93;44.51
62592;BME280;48659;41.622;2.276;2022-10-16T12:37:30;100007.89;;;24.88;44.18
62592;BME280;48659;41.622;2.276;2022-10-16T12:40:11;100009.93;;;25.52;42.69
62592;BME280;48659;41.622;2.276;2022-10-16T12:42:40;100010.54;;;26.05;41.57
62592;BME280;48659;41.622;2.276;2022-10-16T12:45:27;100008.25;;;25.82;41.34
62592;BME280;48659;41.622;2.276;2022-10-16T12:47:56;100010.55;;;25.80;42.46
62592;BME280;48659;41.622;2.276;2022-10-16T12:50:27;100006.00;;;26.63;40.94
62592;BME280;48659;41.622;2.276;2022-10-16T12:52:54;100006.31;;;27.46;39.71
62592;BME280;48659;41.622;2.276;2022-10-16T12:55:23;100005.72;;;27.01;40.04
62592;BME280;48659;41.622;2.276;2022-10-16T12:58:05;100010.15;;;25.24;42.50
62592;BME280;48659;41.622;2.276;2022-10-16T13:00:41;100010.42;;;24.84;44.09
62592;BME280;48659;41.622;2.276;2022-10-16T13:03:30;100005.44;;;26.86;40.12
62592;BME280;48659;41.622;2.276;2022-10-16T13:06:12;100004.78;;;26.87;40.47
62592;BME280;48659;41.622;2.276;2022-10-16T13:11:00;100005.17;;;27.37;40.24
62592;BME280;48659;41.622;2.276;2022-10-16T13:14:02;100004.75;;;26.93;40.65
62592;BME280;48659;41.622;2.276;2022-10-16T13:16:42;100005.03;;;25.01;43.28
62592;BME280;48659;41.622;2.276;2022-10-16T13:19:19;100009.40;;;25.15;45.03
62592;BME280;48659;41.622;2.276;2022-10-16T13:21:59;100011.27;;;26.18;43.45